Aeroporto :
LOGIN :

Iscrizione | Disclaimer

   EN    FR    IT 

 










Sommario :    VFR   VFR Marginale   IFR   IFR Intensivo   IFR Molto Intensivo
Visibilità : 
Base nubi : 
>= 8 km
>= 3000ft
5 / 8 km
1000 / 3000 ft
1500m / 5 km
500 / 1000 ft
800 / 1500m
200 / 500 ft
< 800m
< 200 ft
Simboli :   Temporali  Nebbia  Neve Forte  Precipitazioni Forti  Vento > 20 kt
SIGMETs :   Varie  Temporali  Ghiacco  Turbolenza  Onda orograficha  Ceneri Vulcaniche






- Altitudine del aeroporto : 364 ft
- Codice IATA : FRA


EDDF - Frankfurt Int.

ULTIMO METAR :
  • 300350Z 20012KT 9999 FEW004 SCT027 12/11 Q1019 NOSIG

METARs OBSOLETI :
  • 300320Z 20009KT 9999 FEW004 BKN025 12/11 Q1019 NOSIG
  • 300250Z 20009KT 9999 -RADZ FEW004 BKN017 12/11 Q1019 NOSIG
  • 300220Z 20009KT 8000 -RADZ FEW004 SCT014 BKN047 12/11 Q1019 NOSIG
  • 300150Z 19011KT 8000 -RADZ FEW004 SCT018 BKN047 11/11 Q1019 NOSIG
  • 300120Z 20011KT 9999 -RADZ FEW005 SCT018 BKN045 11/11 Q1019 NOSIG

TAF TAF EDDF
Valido dal 30 a 00 ore il 31 a 06 ore UTC


292300Z 3000/3106 21012KT 9999 BKN025
TEMPO 3000/3007 BKN012
PROB30
TEMPO 3000/3004 3000 -RADZ BKN005
BECMG 3021/3023 20006KT



MetMap, La meteo Aeronautica in un colpo d'occhio ! - Copyright ORBIFLY Dicembre 2007 - Disclaimer

ORBIFLY MET'MAP TEAM :

Programmazione e sviluppo : Alexandra Zaïnal
Concezione : Baudouin d'Aumeries
Aiuto per la programmazione : Marc-Olivier Méhu
Supporto tecnico e logistico : Manuel Goepfert
Aiuto per la traduzione : Arnaldo La Scala

Contatto : metmap@orbifly.com




FONTI E CREDITI :

   NOAA